Time;durP1;ratioP1;P1;durP2;ratioP2;P2;SDS_P1;SDS_P2;PMS_P1;PMS_P2;Temp;Humidity;BMP_temperature;BMP_pressure;BME280_temperature;BME280_humidity;BME280_pressure;Samples;Min_cycle;Max_cycle;Signal;HPM_P1;HPM_P2
2021/07/20 00:01:23;;;;;;;;;;;;;;;16.92;66.78;101027.98;1643711;85;20178;-76
2021/07/20 00:03:56;;;;;;;;;;;;;;;16.92;66.79;101023.20;1638011;86;20478;-76
2021/07/20 00:06:22;;;;;;;;;;;;;;;16.93;66.80;101022.30;1630228;86;20206;-76
2021/07/20 00:08:48;;;;;;;;;;;;;;;16.90;66.71;101023.27;1646300;85;20286;-75
2021/07/20 00:11:14;;;;;;;;;;;;;;;16.91;66.93;101024.97;1645690;85;20202;-76
2021/07/20 00:13:40;;;;;;;;;;;;;;;16.92;66.88;101022.75;1652257;85;20777;-76
2021/07/20 00:16:06;;;;;;;;;;;;;;;16.90;66.94;101024.57;1665752;84;20184;-76
2021/07/20 00:18:34;;;;;;;;;;;;;;;16.91;66.84;101026.73;1666465;84;20260;-76
2021/07/20 00:21:13;;;;;;;;;;;;;;;16.88;67.03;101023.31;1673799;84;20211;-76
2021/07/20 00:23:39;;;;;;;;;;;;;;;16.88;67.07;101022.47;1674776;84;20258;-76
2021/07/20 00:26:09;;;;;;;;;;;;;;;16.86;67.02;101028.20;1668611;84;20193;-76
2021/07/20 00:28:38;;;;;;;;;;;;;;;16.85;67.08;101024.73;1676440;84;20235;-75
2021/07/20 00:31:04;;;;;;;;;;;;;;;16.83;67.17;101021.77;1675190;84;20213;-75
2021/07/20 00:33:30;;;;;;;;;;;;;;;16.84;67.08;101028.70;1666308;84;21052;-75
2021/07/20 00:35:57;;;;;;;;;;;;;;;16.81;67.17;101023.59;1669524;84;20215;-75
2021/07/20 00:38:25;;;;;;;;;;;;;;;16.81;67.29;101022.28;1673547;84;20186;-75
2021/07/20 00:40:51;;;;;;;;;;;;;;;16.80;67.40;101024.04;1664837;84;20112;-75
2021/07/20 00:43:17;;;;;;;;;;;;;;;16.79;67.34;101014.95;1684856;83;20178;-75
2021/07/20 00:45:43;;;;;;;;;;;;;;;16.77;67.40;101014.16;1675472;84;20200;-75
2021/07/20 00:48:09;;;;;;;;;;;;;;;16.76;67.53;101010.69;1674304;84;20200;-75
2021/07/20 00:50:41;;;;;;;;;;;;;;;16.75;67.47;101015.52;1675096;84;20194;-75
2021/07/20 00:53:09;;;;;;;;;;;;;;;16.71;67.46;101015.22;1673191;84;20235;-75
2021/07/20 00:55:53;;;;;;;;;;;;;;;16.72;67.60;101018.23;1669656;84;20216;-75
2021/07/20 00:58:20;;;;;;;;;;;;;;;16.70;67.64;101015.27;1670953;84;20493;-76
2021/07/20 01:00:49;;;;;;;;;;;;;;;16.71;67.79;101013.06;1674842;84;20629;-76
2021/07/20 01:03:14;;;;;;;;;;;;;;;16.69;67.53;101011.80;1668256;84;20204;-76
2021/07/20 01:05:40;;;;;;;;;;;;;;;16.63;67.77;101006.80;1674505;84;20200;-76
2021/07/20 01:08:06;;;;;;;;;;;;;;;16.63;67.93;101016.39;1674580;84;20215;-75
2021/07/20 01:10:33;;;;;;;;;;;;;;;16.63;67.98;101010.72;1674413;84;20228;-75
2021/07/20 01:13:00;;;;;;;;;;;;;;;16.64;67.85;101007.62;1652412;84;20230;-75
2021/07/20 01:15:27;;;;;;;;;;;;;;;16.63;67.83;101008.10;1673263;84;20194;-75
2021/07/20 01:17:56;;;;;;;;;;;;;;;16.58;67.93;101007.86;1674744;84;20233;-75
2021/07/20 01:20:25;;;;;;;;;;;;;;;16.57;67.99;101007.46;1674214;84;20129;-75
2021/07/20 01:22:54;;;;;;;;;;;;;;;16.57;68.00;101008.77;1667675;84;20105;-75
2021/07/20 01:25:21;;;;;;;;;;;;;;;16.52;68.12;101007.62;1675610;84;20094;-75
2021/07/20 01:27:54;;;;;;;;;;;;;;;16.47;67.95;100996.03;1675804;84;20103;-75
2021/07/20 01:30:21;;;;;;;;;;;;;;;16.44;68.17;100994.83;1674403;84;20438;-75
2021/07/20 01:32:48;;;;;;;;;;;;;;;16.41;68.08;100997.98;1671966;84;20135;-75
2021/07/20 01:35:15;;;;;;;;;;;;;;;16.38;68.28;100993.73;1675972;84;20111;-75
2021/07/20 01:37:41;;;;;;;;;;;;;;;16.36;68.36;100998.59;1670320;84;20094;-75
2021/07/20 01:40:09;;;;;;;;;;;;;;;16.37;68.39;101002.46;1658301;84;20116;-75
2021/07/20 01:42:35;;;;;;;;;;;;;;;16.34;68.09;100994.73;1676080;84;20538;-75
2021/07/20 01:45:01;;;;;;;;;;;;;;;16.28;68.50;101002.77;1675556;84;20426;-75
2021/07/20 01:47:28;;;;;;;;;;;;;;;16.28;68.58;100998.85;1675705;84;20126;-75
2021/07/20 01:49:58;;;;;;;;;;;;;;;16.31;68.72;101004.42;1660867;84;20185;-75
2021/07/20 01:52:25;;;;;;;;;;;;;;;16.30;68.67;101004.88;1674544;84;20227;-75
2021/07/20 01:54:51;;;;;;;;;;;;;;;16.29;68.73;101001.01;1673895;84;20193;-75
2021/07/20 01:57:18;;;;;;;;;;;;;;;16.28;68.63;101002.77;1666277;84;20180;-75
2021/07/20 01:59:46;;;;;;;;;;;;;;;16.28;68.87;101001.46;1686348;83;20194;-76
2021/07/20 02:02:28;;;;;;;;;;;;;;;16.28;68.84;100993.63;1669159;84;20121;-76
2021/07/20 02:08:22;;;;;;;;;;;;;;;16.31;69.09;101005.27;1669433;84;20230;-76
2021/07/20 02:10:05;;;;;;;;;;;;;;;16.33;69.07;101010.44;1674442;84;20592;-75
2021/07/20 02:12:38;;;;;;;;;;;;;;;16.34;69.06;101005.63;1674793;84;20182;-75
2021/07/20 02:15:01;;;;;;;;;;;;;;;16.32;69.15;101006.98;1666741;84;20130;-75
2021/07/20 02:17:29;;;;;;;;;;;;;;;16.31;69.11;101006.58;1674881;84;20455;-75
2021/07/20 02:20:02;;;;;;;;;;;;;;;16.29;68.95;101004.47;1657332;84;20164;-75
2021/07/20 02:22:28;;;;;;;;;;;;;;;16.26;69.18;100997.20;1673759;84;20322;-75
2021/07/20 02:24:56;;;;;;;;;;;;;;;16.27;69.36;101000.20;1674786;84;20156;-75
2021/07/20 02:27:24;;;;;;;;;;;;;;;16.28;69.35;100999.30;1671303;84;20196;-75
2021/07/20 02:29:53;;;;;;;;;;;;;;;16.28;69.39;101000.16;1678390;84;20575;-75
2021/07/20 02:32:21;;;;;;;;;;;;;;;16.30;69.42;100998.80;1674651;84;20522;-75
2021/07/20 02:34:47;;;;;;;;;;;;;;;16.30;69.45;100997.05;1675082;84;20174;-75
2021/07/20 02:37:14;;;;;;;;;;;;;;;16.28;69.36;100992.33;1676336;84;20159;-75
2021/07/20 02:39:41;;;;;;;;;;;;;;;16.26;69.38;100991.98;1670291;84;20193;-75
2021/07/20 02:42:08;;;;;;;;;;;;;;;16.23;69.48;100992.48;1674109;84;20206;-75
2021/07/20 02:44:35;;;;;;;;;;;;;;;16.22;69.44;100989.92;1662924;84;20165;-75
2021/07/20 02:47:02;;;;;;;;;;;;;;;16.18;69.46;100991.78;1674281;84;20204;-75
2021/07/20 02:49:29;;;;;;;;;;;;;;;16.19;69.64;100990.02;1664784;84;20160;-75
2021/07/20 02:51:56;;;;;;;;;;;;;;;16.18;69.58;100993.53;1674198;84;20176;-75
2021/07/20 02:54:32;;;;;;;;;;;;;;;16.17;69.50;100995.74;1674169;84;20159;-75
2021/07/20 02:56:58;;;;;;;;;;;;;;;16.12;69.59;100995.89;1663559;84;20177;-75
2021/07/20 02:59:27;;;;;;;;;;;;;;;16.05;69.44;100988.34;1674343;84;20188;-76
2021/07/20 03:01:54;;;;;;;;;;;;;;;16.03;69.77;100992.31;1673420;84;20116;-75
2021/07/20 03:04:20;;;;;;;;;;;;;;;16.05;69.80;100985.28;1657365;84;20396;-75
2021/07/20 03:06:52;;;;;;;;;;;;;;;16.03;69.81;100986.23;1675493;84;20456;-75
2021/07/20 03:09:23;;;;;;;;;;;;;;;16.05;69.99;100994.88;1675759;84;20383;-75
2021/07/20 03:11:49;;;;;;;;;;;;;;;16.06;70.12;100989.60;1667966;84;20109;-75
2021/07/20 03:14:18;;;;;;;;;;;;;;;16.08;69.98;100987.80;1661932;84;20140;-75
2021/07/20 03:16:45;;;;;;;;;;;;;;;16.05;70.11;100981.38;1658151;84;20496;-75
2021/07/20 03:19:13;;;;;;;;;;;;;;;16.08;70.17;100983.88;1670837;85;20546;-76
2021/07/20 03:21:40;;;;;;;;;;;;;;;16.08;70.18;100983.88;1649835;85;20118;-75
2021/07/20 03:24:07;;;;;;;;;;;;;;;16.10;70.21;100985.14;1655124;85;20561;-75
2021/07/20 03:26:35;;;;;;;;;;;;;;;16.09;70.12;100986.04;1651976;85;20490;-75
2021/07/20 03:29:03;;;;;;;;;;;;;;;16.10;70.37;100982.53;1653303;85;20480;-75
2021/07/20 03:31:37;;;;;;;;;;;;;;;16.11;70.35;100978.56;1656540;85;20547;-75
2021/07/20 03:34:05;;;;;;;;;;;;;;;16.14;70.45;100984.95;1644963;85;20622;-75
2021/07/20 03:36:32;;;;;;;;;;;;;;;16.17;70.46;100991.83;1651628;85;20234;-75
2021/07/20 03:39:18;;;;;;;;;;;;;;;16.21;70.59;100992.98;1644948;85;20227;-75
2021/07/20 03:41:45;;;;;;;;;;;;;;;16.25;70.55;100989.81;1635999;85;20617;-75
2021/07/20 03:44:11;;;;;;;;;;;;;;;16.28;70.56;100987.11;1654439;85;20480;-75
2021/07/20 03:46:41;;;;;;;;;;;;;;;16.31;70.58;100989.62;1634344;85;38027;-75
2021/07/20 03:49:27;;;;;;;;;;;;;;;16.35;70.69;100987.30;1660801;85;20230;-75
2021/07/20 03:51:59;;;;;;;;;;;;;;;16.40;70.63;100990.61;1645683;85;20509;-75
2021/07/20 03:54:30;;;;;;;;;;;;;;;16.43;70.63;100993.57;1669982;85;20514;-75
2021/07/20 03:56:58;;;;;;;;;;;;;;;16.47;70.68;100989.50;1664599;85;20165;-75
2021/07/20 03:59:27;;;;;;;;;;;;;;;16.51;70.75;100991.10;1657974;85;20639;-76
2021/07/20 04:01:56;;;;;;;;;;;;;;;16.57;70.78;100989.19;1635318;85;20213;-75
2021/07/20 04:04:23;;;;;;;;;;;;;;;16.62;70.72;100989.87;1647522;85;20778;-75
2021/07/20 04:06:51;;;;;;;;;;;;;;;16.67;70.68;100990.57;1641340;85;20479;-75
2021/07/20 04:09:18;;;;;;;;;;;;;;;16.71;70.63;100996.94;1649503;85;20607;-75
2021/07/20 04:11:45;;;;;;;;;;;;;;;16.73;70.67;100996.89;1654221;85;20641;-75
2021/07/20 04:14:12;;;;;;;;;;;;;;;16.78;70.83;100998.88;1648578;85;20613;-75
2021/07/20 04:16:39;;;;;;;;;;;;;;;16.87;70.99;100986.34;1631110;85;20191;-75
2021/07/20 04:19:08;;;;;;;;;;;;;;;16.98;70.96;100987.72;1633240;86;20156;-75
2021/07/20 04:21:43;;;;;;;;;;;;;;;17.09;71.04;100988.18;1626857;86;20567;-75
2021/07/20 04:24:13;;;;;;;;;;;;;;;17.20;70.88;100992.07;1633287;86;20494;-75
2021/07/20 04:26:44;;;;;;;;;;;;;;;17.29;70.94;100992.64;1640363;86;20235;-75
2021/07/20 04:29:11;;;;;;;;;;;;;;;17.39;70.84;100989.63;1675754;84;20208;-75
2021/07/20 04:31:39;;;;;;;;;;;;;;;17.45;70.72;100994.62;1672393;84;20147;-75
2021/07/20 04:34:07;;;;;;;;;;;;;;;17.52;70.76;100995.23;1672185;84;20210;-76
2021/07/20 04:36:34;;;;;;;;;;;;;;;17.58;70.86;101000.23;1669820;84;20157;-76
2021/07/20 04:39:01;;;;;;;;;;;;;;;17.64;70.84;100999.98;1657340;84;20463;-76
2021/07/20 04:41:27;;;;;;;;;;;;;;;17.70;70.82;101002.83;1674712;84;20168;-76
2021/07/20 04:43:54;;;;;;;;;;;;;;;17.76;70.86;101003.44;1667399;84;20131;-76
2021/07/20 04:46:21;;;;;;;;;;;;;;;17.77;70.72;101010.37;1675209;84;20444;-76
2021/07/20 04:48:47;;;;;;;;;;;;;;;17.80;70.63;101010.25;1666109;84;20583;-76
2021/07/20 04:51:13;;;;;;;;;;;;;;;17.84;70.80;101010.98;1670534;84;20563;-75
2021/07/20 04:53:40;;;;;;;;;;;;;;;17.93;70.94;101015.85;1657099;85;20450;-75
2021/07/20 04:56:07;;;;;;;;;;;;;;;17.99;70.88;101016.91;1666882;84;20693;-75
2021/07/20 04:58:33;;;;;;;;;;;;;;;18.09;70.90;101013.47;1663128;84;20539;-76
2021/07/20 05:01:12;;;;;;;;;;;;;;;18.18;70.59;101017.02;1661894;84;20546;-76
2021/07/20 05:03:40;;;;;;;;;;;;;;;18.27;70.83;101011.84;1675140;84;20429;-76
2021/07/20 05:06:06;;;;;;;;;;;;;;;18.42;70.92;101015.12;1654206;84;20113;-76
2021/07/20 05:08:33;;;;;;;;;;;;;;;18.55;70.85;101015.46;1671519;84;20111;-76
2021/07/20 05:11:00;;;;;;;;;;;;;;;18.69;70.74;101023.16;1668529;85;20218;-76
2021/07/20 05:13:33;;;;;;;;;;;;;;;18.78;70.32;101017.49;1664739;84;20202;-76
2021/07/20 05:16:02;;;;;;;;;;;;;;;18.87;70.65;101021.94;1669893;84;20215;-76
2021/07/20 05:18:28;;;;;;;;;;;;;;;19.02;70.67;101022.58;1674254;84;20122;-76
2021/07/20 05:20:57;;;;;;;;;;;;;;;19.14;70.56;101019.41;1674591;84;20486;-76
2021/07/20 05:23:25;;;;;;;;;;;;;;;19.25;70.36;101019.75;1674446;84;20149;-76
2021/07/20 05:25:53;;;;;;;;;;;;;;;19.36;70.49;101026.67;1666308;84;20630;-76
2021/07/20 05:28:20;;;;;;;;;;;;;;;19.44;70.34;101025.86;1672327;84;20195;-76
2021/07/20 05:30:50;;;;;;;;;;;;;;;19.53;70.36;101029.01;1665041;84;20240;-76
2021/07/20 05:33:20;;;;;;;;;;;;;;;19.61;70.18;101021.17;1674698;84;20163;-76
2021/07/20 05:35:56;;;;;;;;;;;;;;;19.66;70.26;101023.58;1660517;84;20219;-76
2021/07/20 05:38:24;;;;;;;;;;;;;;;19.75;70.26;101025.31;1673915;84;20182;-76
2021/07/20 05:40:54;;;;;;;;;;;;;;;19.89;70.29;101032.96;1673553;84;20155;-76
2021/07/20 05:43:28;;;;;;;;;;;;;;;20.01;70.10;101037.63;1679327;84;20297;-76
2021/07/20 05:45:58;;;;;;;;;;;;;;;19.96;70.08;101035.67;1674752;84;20616;-76
2021/07/20 05:48:25;;;;;;;;;;;;;;;20.08;70.15;101039.03;1672929;84;20506;-76
2021/07/20 05:50:53;;;;;;;;;;;;;;;20.23;70.22;101043.53;1672977;84;20212;-76
2021/07/20 05:53:29;;;;;;;;;;;;;;;20.37;70.04;101038.88;1674836;84;20160;-75
2021/07/20 05:56:01;;;;;;;;;;;;;;;20.51;69.87;101044.33;1652369;84;20183;-75
2021/07/20 05:58:27;;;;;;;;;;;;;;;20.89;70.38;101044.97;1673807;84;20224;-76
2021/07/20 06:01:00;;;;;;;;;;;;;;;21.33;69.94;101045.26;1675021;84;20212;-76
2021/07/20 06:03:27;;;;;;;;;;;;;;;21.56;69.73;101046.66;1675009;84;20157;-75
2021/07/20 06:05:55;;;;;;;;;;;;;;;21.83;69.54;101048.70;1669843;84;20107;-75
2021/07/20 06:08:24;;;;;;;;;;;;;;;22.00;69.32;101056.47;1675070;84;20136;-75
2021/07/20 06:10:57;;;;;;;;;;;;;;;22.13;69.30;101061.45;1674441;84;20139;-75
2021/07/20 06:13:38;;;;;;;;;;;;;;;22.25;69.11;101059.44;1665126;84;20137;-75
2021/07/20 06:16:06;;;;;;;;;;;;;;;22.31;69.09;101066.15;1675034;84;20111;-75
2021/07/20 06:18:32;;;;;;;;;;;;;;;22.40;69.02;101064.27;1660935;84;20112;-75
2021/07/20 06:21:01;;;;;;;;;;;;;;;22.55;69.23;101066.02;1685571;83;20128;-75
2021/07/20 06:23:30;;;;;;;;;;;;;;;22.63;68.81;101066.88;1681405;83;20103;-75
2021/07/20 06:26:22;;;;;;;;;;;;;;;22.69;68.77;101067.37;1656500;85;20100;-75
2021/07/20 06:28:58;;;;;;;;;;;;;;;22.67;68.58;101073.67;1670641;83;20097;-75
2021/07/20 06:31:24;;;;;;;;;;;;;;;22.64;68.49;101075.17;1659681;85;20321;-75
2021/07/20 06:33:51;;;;;;;;;;;;;;;22.54;68.55;101074.86;1653885;85;20175;-75
2021/07/20 06:36:36;;;;;;;;;;;;;;;22.57;68.78;101070.72;1623633;87;20298;-75
2021/07/20 06:39:04;;;;;;;;;;;;;;;22.61;68.55;101068.29;1657951;85;20220;-75
2021/07/20 06:41:50;;;;;;;;;;;;;;;22.64;68.40;101074.70;1654047;85;20605;-75
2021/07/20 06:44:23;;;;;;;;;;;;;;;22.73;68.50;101079.43;1659834;85;20179;-75
2021/07/20 06:47:09;;;;;;;;;;;;;;;22.83;68.32;101074.97;1666250;83;20573;-76
2021/07/20 06:49:36;;;;;;;;;;;;;;;22.93;68.18;101075.61;1684272;83;20179;-76
2021/07/20 06:52:04;;;;;;;;;;;;;;;23.05;68.14;101070.06;1676252;83;20582;-75
2021/07/20 06:54:31;;;;;;;;;;;;;;;23.23;68.28;101076.86;1656161;85;20183;-76
2021/07/20 06:57:05;;;;;;;;;;;;;;;23.43;68.15;101071.64;1653982;85;20145;-76
2021/07/20 06:59:49;;;;;;;;;;;;;;;23.61;67.90;101072.32;1656646;85;20171;-76
2021/07/20 07:02:35;;;;;;;;;;;;;;;23.69;67.59;101071.36;1683269;83;20445;-76
2021/07/20 07:05:12;;;;;;;;;;;;;;;23.68;67.54;101073.63;1656547;85;20239;-76
2021/07/20 07:07:39;;;;;;;;;;;;;;;23.68;67.37;101074.48;1685647;83;20436;-76
2021/07/20 07:10:08;;;;;;;;;;;;;;;23.81;67.57;101072.38;1655778;85;20107;-76
2021/07/20 07:12:35;;;;;;;;;;;;;;;23.96;67.30;101064.29;1659080;85;20440;-76
2021/07/20 07:15:21;;;;;;;;;;;;;;;24.00;67.07;101067.11;1671969;84;20103;-76
2021/07/20 07:17:59;;;;;;;;;;;;;;;24.02;67.16;101065.22;1646648;85;20106;-76
2021/07/20 07:20:27;;;;;;;;;;;;;;;24.00;66.91;101067.58;1647707;85;20115;-76
2021/07/20 07:22:54;;;;;;;;;;;;;;;24.02;67.02;101070.97;1649313;85;20723;-76
2021/07/20 07:25:21;;;;;;;;;;;;;;;24.02;67.01;101071.82;1652675;85;20100;-76
2021/07/20 07:27:48;;;;;;;;;;;;;;;24.12;66.84;101072.55;1653598;85;20138;-76
2021/07/20 07:30:30;;;;;;;;;;;;;;;24.14;66.83;101071.97;1640673;86;20391;-76
2021/07/20 07:32:58;;;;;;;;;;;;;;;24.13;66.56;101076.88;1621611;87;20100;-76
2021/07/20 07:35:24;;;;;;;;;;;;;;;24.10;66.59;101073.97;1623184;87;20140;-76
2021/07/20 07:38:09;;;;;;;;;;;;;;;24.09;66.45;101070.95;1641066;86;20601;-75
2021/07/20 07:40:50;;;;;;;;;;;;;;;24.11;66.35;101074.34;1637298;86;20232;-75
2021/07/20 07:43:16;;;;;;;;;;;;;;;24.04;65.98;101075.21;1659076;85;20336;-75
2021/07/20 07:45:43;;;;;;;;;;;;;;;23.98;66.08;101069.00;1651719;85;20197;-75
2021/07/20 07:48:12;;;;;;;;;;;;;;;23.99;65.94;101072.48;1635952;86;20645;-75
2021/07/20 07:50:57;;;;;;;;;;;;;;;24.10;66.08;101066.04;1638326;86;20486;-75
2021/07/20 07:53:40;;;;;;;;;;;;;;;24.24;66.07;101067.31;1659112;85;20183;-75
2021/07/20 07:56:07;;;;;;;;;;;;;;;24.28;65.56;101075.44;1658830;85;20130;-75
2021/07/20 07:58:34;;;;;;;;;;;;;;;24.39;65.85;101080.87;1659326;85;20131;-76
2021/07/20 08:01:04;;;;;;;;;;;;;;;24.54;65.69;101080.77;1658883;85;20168;-76
2021/07/20 08:03:49;;;;;;;;;;;;;;;24.66;65.40;101073.34;1683923;83;20286;-76
2021/07/20 08:06:20;;;;;;;;;;;;;;;24.66;65.46;101074.66;1656554;85;20537;-76
2021/07/20 08:08:44;;;;;;;;;;;;;;;24.67;65.25;101079.00;1650941;85;20464;-76
2021/07/20 08:11:15;;;;;;;;;;;;;;;24.86;65.27;101078.60;1652177;85;20229;-76
2021/07/20 08:13:43;;;;;;;;;;;;;;;24.94;64.97;101077.60;1636005;85;20226;-76
2021/07/20 08:16:14;;;;;;;;;;;;;;;25.00;64.98;101076.70;1618308;87;20584;-76
2021/07/20 08:18:49;;;;;;;;;;;;;;;25.08;64.54;101074.37;1657831;83;20212;-76
2021/07/20 08:21:17;;;;;;;;;;;;;;;25.05;64.56;101075.06;1655782;85;20203;-77
2021/07/20 08:23:44;;;;;;;;;;;;;;;25.14;64.61;101074.91;1660130;85;20175;-77
2021/07/20 08:26:22;;;;;;;;;;;;;;;25.22;64.39;101069.92;1658926;85;20191;-77
2021/07/20 08:29:04;;;;;;;;;;;;;;;25.32;64.56;101069.17;1657517;85;20219;-76
2021/07/20 08:31:45;;;;;;;;;;;;;;;25.42;64.30;101066.73;1652288;85;20214;-76
2021/07/20 08:34:12;;;;;;;;;;;;;;;25.69;64.13;101074.52;1604656;87;20200;-77
2021/07/20 08:36:40;;;;;;;;;;;;;;;25.89;63.91;101077.05;1639599;86;20209;-77
2021/07/20 08:39:14;;;;;;;;;;;;;;;26.02;63.63;101072.52;1637827;86;20205;-77
2021/07/20 08:42:10;;;;;;;;;;;;;;;26.01;63.47;101069.02;1642324;86;20149;-77
2021/07/20 08:45:19;;;;;;;;;;;;;;;26.17;63.51;101067.89;1641775;86;20133;-77
2021/07/20 08:48:25;;;;;;;;;;;;;;;26.43;63.48;101064.18;1649287;85;20109;-77
2021/07/20 08:50:55;;;;;;;;;;;;;;;26.60;63.30;101078.31;1645500;85;20100;-79
2021/07/20 08:53:47;;;;;;;;;;;;;;;26.64;62.90;101066.51;1643379;86;20138;-79
2021/07/20 08:56:35;;;;;;;;;;;;;;;26.68;62.84;101062.66;1645443;85;20143;-79
2021/07/20 08:59:26;;;;;;;;;;;;;;;26.64;62.69;101056.38;1642415;85;20136;-79
2021/07/20 09:02:35;;;;;;;;;;;;;;;26.40;62.29;101058.27;1643122;85;20109;-79
2021/07/20 09:05:29;;;;;;;;;;;;;;;26.19;62.38;101062.00;1631748;86;20437;-79
2021/07/20 09:08:20;;;;;;;;;;;;;;;26.05;62.55;101059.04;1640114;86;20125;-79
2021/07/20 09:11:10;;;;;;;;;;;;;;;25.99;62.35;101067.47;1634179;86;20451;-79
2021/07/20 09:14:04;;;;;;;;;;;;;;;25.89;61.98;101060.67;1631086;86;20131;-79
2021/07/20 09:16:55;;;;;;;;;;;;;;;25.58;61.81;101057.19;1638847;86;20431;-79
2021/07/20 09:19:56;;;;;;;;;;;;;;;25.51;61.84;101062.07;1639747;86;20456;-77
2021/07/20 09:22:47;;;;;;;;;;;;;;;25.36;61.53;101062.71;1623673;86;20114;-77
2021/07/20 09:25:38;;;;;;;;;;;;;;;25.21;61.46;101058.97;1638890;86;20135;-77
2021/07/20 09:28:38;;;;;;;;;;;;;;;25.12;61.42;101059.61;1637225;86;20154;-80
2021/07/20 09:31:47;;;;;;;;;;;;;;;25.07;61.26;101061.25;1637943;86;20111;-78
2021/07/20 09:34:47;;;;;;;;;;;;;;;25.04;61.27;101054.37;1655612;85;20110;-77
2021/07/20 09:38:08;;;;;;;;;;;;;;;25.14;61.42;101057.23;1654198;85;20142;-77
2021/07/20 09:41:19;;;;;;;;;;;;;;;25.31;61.15;101055.56;1650963;85;20112;-77
2021/07/20 09:44:16;;;;;;;;;;;;;;;25.42;61.00;101042.90;1640331;86;20175;-77
2021/07/20 09:47:25;;;;;;;;;;;;;;;25.43;60.88;101044.59;1632767;86;20194;-77
2021/07/20 09:50:12;;;;;;;;;;;;;;;25.56;60.70;101053.32;1641131;86;20135;-76
2021/07/20 09:53:35;;;;;;;;;;;;;;;25.63;60.47;101047.11;1636679;86;20157;-77
2021/07/20 09:56:43;;;;;;;;;;;;;;;25.66;60.47;101045.59;1638522;86;20171;-77
2021/07/20 09:59:46;;;;;;;;;;;;;;;25.66;60.35;101051.73;1640823;86;20115;-78
2021/07/20 10:02:46;;;;;;;;;;;;;;;25.71;60.03;101051.41;1638352;86;20111;-78
2021/07/20 10:05:55;;;;;;;;;;;;;;;25.74;60.15;101043.23;1624308;86;20123;-77
2021/07/20 10:08:53;;;;;;;;;;;;;;;25.83;60.13;101043.89;1649707;85;20222;-78
2021/07/20 10:11:41;;;;;;;;;;;;;;;25.84;59.88;101047.39;1644425;85;20198;-77
2021/07/20 10:14:53;;;;;;;;;;;;;;;25.79;59.66;101043.75;1681289;83;21078;-77
2021/07/20 10:17:51;;;;;;;;;;;;;;;25.75;59.94;101037.46;1656869;84;20374;-78
2021/07/20 10:20:39;;;;;;;;;;;;;;;25.61;59.35;101043.24;1668334;84;20177;-78
2021/07/20 10:23:29;;;;;;;;;;;;;;;25.58;59.30;101036.84;1685001;83;20129;-78
2021/07/20 10:26:26;;;;;;;;;;;;;;;25.69;59.37;101030.80;1682435;83;20116;-78
2021/07/20 10:29:20;;;;;;;;;;;;;;;25.69;58.99;101037.42;1679904;83;20744;-78
2021/07/20 10:32:07;;;;;;;;;;;;;;;25.63;58.86;101036.52;1659803;85;20176;-77
2021/07/20 10:34:55;;;;;;;;;;;;;;;25.52;58.70;101031.98;1656120;85;20107;-77
2021/07/20 10:37:41;;;;;;;;;;;;;;;25.52;58.83;101029.81;1685092;83;20553;-77
2021/07/20 10:40:26;;;;;;;;;;;;;;;25.48;58.79;101031.84;1657193;85;20734;-77
2021/07/20 10:43:17;;;;;;;;;;;;;;;25.38;58.50;101029.51;1657441;85;20132;-77
2021/07/20 10:46:04;;;;;;;;;;;;;;;25.31;58.55;101030.90;1663237;85;20148;-77
2021/07/20 10:48:50;;;;;;;;;;;;;;;25.22;58.32;101036.36;1661764;85;20137;-78
2021/07/20 10:51:41;;;;;;;;;;;;;;;25.18;58.18;101033.56;1658607;85;20130;-78
2021/07/20 10:54:30;;;;;;;;;;;;;;;25.12;58.03;101026.53;1647260;85;20151;-78
2021/07/20 10:57:17;;;;;;;;;;;;;;;25.00;57.96;101036.17;1652874;85;20148;-78
2021/07/20 11:00:11;;;;;;;;;;;;;;;24.88;57.77;101036.54;1640280;85;20397;-78
2021/07/20 11:03:08;;;;;;;;;;;;;;;24.76;57.76;101037.37;1649971;85;20102;-77
2021/07/20 11:05:53;;;;;;;;;;;;;;;24.67;57.94;101032.72;1618123;85;20130;-80
2021/07/20 11:08:43;;;;;;;;;;;;;;;24.67;58.00;101029.59;1637267;86;20124;-80
2021/07/20 11:11:28;;;;;;;;;;;;;;;24.74;57.89;101026.91;1650070;85;20117;-80
2021/07/20 11:14:13;;;;;;;;;;;;;;;24.72;57.77;101027.48;1648511;85;20143;-80
2021/07/20 11:16:59;;;;;;;;;;;;;;;24.61;57.59;101023.87;1620587;86;20498;-80
2021/07/20 11:19:45;;;;;;;;;;;;;;;24.54;57.20;101023.92;1620900;86;20110;-80
2021/07/20 11:22:30;;;;;;;;;;;;;;;24.56;57.42;101017.58;1616944;86;20125;-80
2021/07/20 11:25:15;;;;;;;;;;;;;;;24.58;57.39;101018.80;1684858;83;20142;-80
2021/07/20 11:28:01;;;;;;;;;;;;;;;24.70;57.39;101021.45;1684010;83;20631;-80
2021/07/20 11:30:47;;;;;;;;;;;;;;;24.77;57.10;101016.59;1677986;83;20223;-80
2021/07/20 11:33:38;;;;;;;;;;;;;;;24.92;56.97;101026.59;1671152;83;20207;-80
2021/07/20 11:36:25;;;;;;;;;;;;;;;24.96;56.76;101023.63;1682896;83;20547;-78
2021/07/20 11:39:19;;;;;;;;;;;;;;;25.01;56.64;101018.86;1689025;83;20181;-79
2021/07/20 11:42:19;;;;;;;;;;;;;;;25.00;56.38;101015.84;1686372;83;20235;-79
2021/07/20 11:45:09;;;;;;;;;;;;;;;24.95;56.49;101019.77;1689228;83;20938;-79
2021/07/20 11:48:12;;;;;;;;;;;;;;;24.96;56.39;101018.81;1665745;85;20213;-79
2021/07/20 11:51:02;;;;;;;;;;;;;;;25.00;56.25;101014.52;1672242;85;20247;-80
2021/07/20 11:54:07;;;;;;;;;;;;;;;24.95;56.17;101012.67;1655077;85;20175;-77
2021/07/20 11:57:07;;;;;;;;;;;;;;;24.95;55.97;101017.97;1657299;85;20237;-77
2021/07/20 12:00:13;;;;;;;;;;;;;;;24.94;55.93;101016.75;1690140;83;20130;-77
2021/07/20 12:03:04;;;;;;;;;;;;;;;24.80;56.06;101007.59;1685957;83;20142;-77
2021/07/20 12:06:17;;;;;;;;;;;;;;;24.69;55.92;101015.80;1684796;83;20113;-77
2021/07/20 12:09:28;;;;;;;;;;;;;;;24.58;56.27;101017.47;1688213;83;20127;-78
2021/07/20 12:12:13;;;;;;;;;;;;;;;24.38;55.58;101014.88;1689693;83;20587;-76
2021/07/20 12:14:57;;;;;;;;;;;;;;;24.13;55.59;101014.31;1680236;83;20142;-76
2021/07/20 12:17:45;;;;;;;;;;;;;;;24.03;55.64;101018.03;1658864;85;20160;-77
2021/07/20 12:20:30;;;;;;;;;;;;;;;23.93;55.67;101016.94;1677191;84;20239;-77
2021/07/20 12:23:16;;;;;;;;;;;;;;;23.84;55.65;101011.44;1634880;86;20106;-77
2021/07/20 12:26:00;;;;;;;;;;;;;;;23.80;55.48;101007.30;1652104;85;20534;-77
2021/07/20 12:28:47;;;;;;;;;;;;;;;23.73;55.40;101009.02;1649340;85;20137;-77
2021/07/20 12:31:32;;;;;;;;;;;;;;;23.67;55.37;101006.77;1655888;85;20264;-77
2021/07/20 12:34:17;;;;;;;;;;;;;;;23.55;55.26;101004.06;1652105;85;20180;-76
2021/07/20 12:37:02;;;;;;;;;;;;;;;23.43;55.15;101009.14;1637643;86;20227;-76
2021/07/20 12:39:47;;;;;;;;;;;;;;;23.27;55.29;101009.77;1633611;86;20243;-76
2021/07/20 12:42:16;;;;;;;;;;;;;;;23.20;55.25;101007.60;1636261;86;20551;-75
2021/07/20 12:44:42;;;;;;;;;;;;;;;23.09;55.06;101005.16;1657434;85;21097;-75
2021/07/20 12:47:11;;;;;;;;;;;;;;;23.02;55.06;101003.84;1679764;84;20186;-76
2021/07/20 12:49:43;;;;;;;;;;;;;;;22.96;54.96;101002.05;1652433;86;20677;-76
2021/07/20 12:52:10;;;;;;;;;;;;;;;22.85;54.83;101005.37;1610501;87;20476;-76
2021/07/20 12:54:41;;;;;;;;;;;;;;;22.77;54.93;101007.12;1634576;86;20170;-76
2021/07/20 12:57:16;;;;;;;;;;;;;;;22.78;55.03;101005.33;1634367;86;20571;-76
2021/07/20 12:59:44;;;;;;;;;;;;;;;22.75;54.98;101003.73;1616523;87;21356;-77
2021/07/20 13:02:15;;;;;;;;;;;;;;;22.72;54.95;101010.50;1630102;86;20639;-77
2021/07/20 13:04:54;;;;;;;;;;;;;;;22.70;54.94;100995.25;1655787;85;20512;-77
2021/07/20 13:07:23;;;;;;;;;;;;;;;22.70;54.83;101008.42;1648670;85;20186;-77
2021/07/20 13:09:49;;;;;;;;;;;;;;;22.73;55.16;101004.76;1680027;84;20366;-77
2021/07/20 13:12:17;;;;;;;;;;;;;;;22.79;55.21;100997.83;1632810;86;20617;-77
2021/07/20 13:14:43;;;;;;;;;;;;;;;22.85;55.20;100996.14;1637425;86;20104;-77
2021/07/20 13:17:11;;;;;;;;;;;;;;;22.87;54.88;100998.21;1616657;86;20184;-77
2021/07/20 13:19:41;;;;;;;;;;;;;;;22.86;54.90;100995.20;1636650;84;20514;-77
2021/07/20 13:22:08;;;;;;;;;;;;;;;22.83;54.86;100996.70;1657746;85;20549;-77
2021/07/20 13:24:38;;;;;;;;;;;;;;;22.84;54.62;100997.08;1623830;87;20567;-77